Time;durP1;ratioP1;P1;durP2;ratioP2;P2;SDS_P1;SDS_P2;PMS_P1;PMS_P2;Temp;Humidity;BMP_temperature;BMP_pressure;BME280_temperature;BME280_humidity;BME280_pressure;Samples;Min_cycle;Max_cycle;Signal;HPM_P1;HPM_P2
2023/04/23 00:02:13;;;;;;;23.80;16.65;;;7.60;99.90;;;;;;5050121;28;20028;-77
2023/04/23 00:04:49;;;;;;;22.65;15.07;;;7.60;99.90;;;;;;5050572;28;20040;-76
2023/04/23 00:07:15;;;;;;;25.70;16.77;;;7.60;99.90;;;;;;5050182;28;20044;-75
2023/04/23 00:09:43;;;;;;;23.98;17.40;;;7.60;99.90;;;;;;5050448;28;20435;-75
2023/04/23 00:12:10;;;;;;;22.42;17.33;;;7.60;99.90;;;;;;5049623;28;20047;-75
2023/04/23 00:14:36;;;;;;;24.42;17.35;;;7.60;99.90;;;;;;5053714;28;20025;-74
2023/04/23 00:17:02;;;;;;;26.00;18.27;;;7.60;99.90;;;;;;5054508;28;20032;-74
2023/04/23 00:19:29;;;;;;;26.77;18.25;;;7.60;99.90;;;;;;5053728;28;20031;-75
2023/04/23 00:21:55;;;;;;;28.73;20.20;;;7.60;99.90;;;;;;5054029;28;20339;-74
2023/04/23 00:24:21;;;;;;;30.10;18.98;;;7.60;99.90;;;;;;5053702;28;20128;-74
2023/04/23 00:26:46;;;;;;;32.13;22.50;;;7.60;99.90;;;;;;5054315;28;20087;-74
2023/04/23 00:29:12;;;;;;;28.08;20.08;;;7.60;99.90;;;;;;5053856;28;20021;-74
2023/04/23 00:31:38;;;;;;;34.22;20.65;;;7.60;99.90;;;;;;5053603;28;20029;-74
2023/04/23 00:34:04;;;;;;;32.25;19.65;;;7.60;99.90;;;;;;5054090;28;20095;-74
2023/04/23 00:36:29;;;;;;;27.92;19.73;;;7.60;99.90;;;;;;5053605;28;20048;-74
2023/04/23 00:38:55;;;;;;;27.30;19.50;;;7.60;99.90;;;;;;5053598;28;20021;-74
2023/04/23 00:41:22;;;;;;;27.80;18.83;;;7.60;99.90;;;;;;5053010;28;20032;-74
2023/04/23 00:43:48;;;;;;;29.73;19.48;;;7.70;99.90;;;;;;5053981;28;20470;-74
2023/04/23 00:46:15;;;;;;;31.75;20.35;;;7.80;99.90;;;;;;5053515;28;20029;-76
2023/04/23 00:48:41;;;;;;;36.00;22.85;;;7.80;99.90;;;;;;5053719;28;20311;-79
2023/04/23 00:51:10;;;;;;;31.05;21.48;;;7.80;99.90;;;;;;5054174;28;20021;-84
2023/04/23 00:53:35;;;;;;;39.30;22.50;;;7.70;99.90;;;;;;5052840;28;20025;-81
2023/04/23 00:56:04;;;;;;;26.52;18.88;;;7.40;99.90;;;;;;5054130;28;20450;-78
2023/04/23 00:58:30;;;;;;;29.60;19.70;;;7.30;99.90;;;;;;5053150;28;20461;-77
2023/04/23 01:00:57;;;;;;;32.50;20.27;;;7.20;99.90;;;;;;5052505;28;20388;-76
2023/04/23 01:03:25;;;;;;;35.42;22.30;;;7.20;99.90;;;;;;5052787;28;20049;-76
2023/04/23 01:05:51;;;;;;;30.83;21.15;;;7.10;99.90;;;;;;5053034;28;20439;-75
2023/04/23 01:08:17;;;;;;;38.83;23.35;;;7.10;99.90;;;;;;5053040;28;20090;-75
2023/04/23 01:10:44;;;;;;;36.13;23.40;;;7.10;99.90;;;;;;5053230;28;20483;-75
2023/04/23 01:13:13;;;;;;;35.90;23.38;;;7.10;99.90;;;;;;5052910;28;20033;-77
2023/04/23 01:15:39;;;;;;;38.28;23.33;;;7.10;99.90;;;;;;5053233;28;20136;-75
2023/04/23 01:18:06;;;;;;;40.20;23.25;;;7.10;99.90;;;;;;5053328;28;20017;-75
2023/04/23 01:20:33;;;;;;;35.42;22.60;;;7.10;99.90;;;;;;5052635;28;20025;-75
2023/04/23 01:22:59;;;;;;;37.10;23.50;;;7.20;99.90;;;;;;5052576;28;20045;-75
2023/04/23 01:25:24;;;;;;;35.40;23.10;;;7.10;99.90;;;;;;5051328;28;20029;-75
2023/04/23 01:27:50;;;;;;;35.53;22.92;;;7.20;99.90;;;;;;5053266;28;20480;-74
2023/04/23 01:30:16;;;;;;;16.65;10.93;;;7.20;99.90;;;;;;5052254;28;20025;-74
2023/04/23 01:32:43;;;;;;;9.68;7.30;;;7.10;99.90;;;;;;5052890;28;20021;-74
2023/04/23 01:35:09;;;;;;;5.78;4.72;;;7.00;99.90;;;;;;5052650;28;20036;-74
2023/04/23 01:37:37;;;;;;;4.20;3.70;;;7.00;99.90;;;;;;5052337;28;20082;-74
2023/04/23 01:40:03;;;;;;;3.53;3.22;;;6.90;99.90;;;;;;5053024;28;20028;-74
2023/04/23 01:42:28;;;;;;;3.72;3.08;;;6.90;99.90;;;;;;5052672;28;20024;-75
2023/04/23 01:44:54;;;;;;;3.40;3.05;;;6.80;99.90;;;;;;5052641;28;20036;-75
2023/04/23 01:47:21;;;;;;;3.30;3.00;;;6.80;99.90;;;;;;5052267;28;20021;-74
2023/04/23 01:49:47;;;;;;;4.00;3.60;;;6.70;99.90;;;;;;5052717;28;20481;-74
2023/04/23 01:52:13;;;;;;;3.72;3.35;;;6.70;99.90;;;;;;5052191;28;20045;-74
2023/04/23 01:54:39;;;;;;;3.72;3.42;;;6.70;99.90;;;;;;5052556;28;20048;-73
2023/04/23 01:57:05;;;;;;;3.53;3.13;;;6.70;99.90;;;;;;5052093;28;20084;-74
2023/04/23 01:59:31;;;;;;;3.90;3.50;;;6.80;99.90;;;;;;5052007;28;20017;-74
2023/04/23 02:01:56;;;;;;;3.97;3.28;;;6.70;99.90;;;;;;5052121;28;20421;-74
2023/04/23 02:04:22;;;;;;;4.07;3.63;;;6.70;99.90;;;;;;5051828;28;20017;-74
2023/04/23 02:06:50;;;;;;;4.80;3.92;;;6.70;99.90;;;;;;5052071;28;20484;-74
2023/04/23 02:09:16;;;;;;;5.70;4.00;;;6.70;99.90;;;;;;5051742;28;20454;-75
2023/04/23 02:11:41;;;;;;;4.88;4.05;;;6.70;99.90;;;;;;5052051;28;20116;-74
2023/04/23 02:14:08;;;;;;;4.13;3.50;;;6.70;99.90;;;;;;5052061;28;20029;-75
2023/04/23 02:16:34;;;;;;;5.65;3.67;;;6.70;99.90;;;;;;5051618;28;20039;-75
2023/04/23 02:19:00;;;;;;;4.65;4.18;;;6.70;99.90;;;;;;5050332;28;20104;-76
2023/04/23 02:21:26;;;;;;;4.57;3.80;;;6.80;99.90;;;;;;5051363;28;20021;-75
2023/04/23 02:23:52;;;;;;;4.10;3.50;;;6.80;99.90;;;;;;5051829;28;20037;-75
2023/04/23 02:26:18;;;;;;;3.35;3.05;;;6.70;99.90;;;;;;5051304;28;20061;-75
2023/04/23 02:28:45;;;;;;;4.70;3.70;;;6.70;99.90;;;;;;5051677;28;20067;-75
2023/04/23 02:31:10;;;;;;;4.22;3.20;;;6.60;99.90;;;;;;5051711;28;20104;-74
2023/04/23 02:33:36;;;;;;;3.50;3.20;;;6.60;99.90;;;;;;5051072;28;20088;-74
2023/04/23 02:36:02;;;;;;;3.75;3.40;;;6.60;99.90;;;;;;5051601;28;20036;-75
2023/04/23 02:38:28;;;;;;;3.90;3.28;;;6.60;99.90;;;;;;5050792;28;20025;-75
2023/04/23 02:40:54;;;;;;;6.63;4.10;;;6.60;99.90;;;;;;5051803;28;20341;-76
2023/04/23 02:43:20;;;;;;;4.00;3.40;;;6.60;99.90;;;;;;5051404;28;20068;-75
2023/04/23 02:45:45;;;;;;;5.28;3.97;;;6.60;99.90;;;;;;5051588;28;20028;-74
2023/04/23 02:48:11;;;;;;;5.47;3.95;;;6.60;99.90;;;;;;5051917;28;20120;-74
2023/04/23 02:50:40;;;;;;;4.28;3.45;;;6.60;99.90;;;;;;5050987;28;20025;-75
2023/04/23 02:53:06;;;;;;;5.03;3.90;;;6.60;99.90;;;;;;5051830;28;20496;-74
2023/04/23 02:55:32;;;;;;;4.35;3.95;;;6.60;99.90;;;;;;5050823;28;20032;-74
2023/04/23 02:57:58;;;;;;;5.00;4.50;;;6.60;99.90;;;;;;5051291;28;20021;-75
2023/04/23 03:00:26;;;;;;;6.00;4.57;;;6.70;99.90;;;;;;5050962;28;20013;-75
2023/04/23 03:02:51;;;;;;;6.35;4.40;;;6.70;99.90;;;;;;5051277;28;20091;-75
2023/04/23 03:05:17;;;;;;;4.97;4.25;;;6.70;99.90;;;;;;5050503;28;20119;-76
2023/04/23 03:07:43;;;;;;;8.20;4.82;;;6.80;99.90;;;;;;5051057;28;20498;-76
2023/04/23 03:10:09;;;;;;;5.18;4.68;;;6.80;99.90;;;;;;5051191;28;20048;-76
2023/04/23 03:12:34;;;;;;;5.38;4.65;;;6.70;99.90;;;;;;5050554;28;20036;-76
2023/04/23 03:15:00;;;;;;;5.45;4.95;;;6.70;99.90;;;;;;5050840;28;20033;-76
2023/04/23 03:17:26;;;;;;;6.68;5.47;;;6.70;99.90;;;;;;5050512;28;20124;-74
2023/04/23 03:19:52;;;;;;;5.38;4.88;;;6.60;99.90;;;;;;5050571;28;20032;-74
2023/04/23 03:22:17;;;;;;;6.07;5.53;;;6.60;99.90;;;;;;5050162;28;20032;-78
2023/04/23 03:24:43;;;;;;;6.78;6.07;;;6.60;99.90;;;;;;5049597;28;20028;-75
2023/04/23 03:27:09;;;;;;;6.82;4.82;;;6.60;99.90;;;;;;5050797;28;20093;-75
2023/04/23 03:29:35;;;;;;;7.72;5.60;;;6.60;99.90;;;;;;5048885;28;20025;-75
2023/04/23 03:32:01;;;;;;;7.28;5.70;;;6.60;99.90;;;;;;5050741;28;20052;-75
2023/04/23 03:34:26;;;;;;;5.82;5.22;;;6.70;99.90;;;;;;5050228;28;20052;-74
2023/04/23 03:36:52;;;;;;;6.07;5.20;;;6.70;99.90;;;;;;5049165;28;20064;-75
2023/04/23 03:39:18;;;;;;;7.28;5.82;;;6.70;99.90;;;;;;5050365;28;20025;-75
2023/04/23 03:41:44;;;;;;;7.60;6.47;;;6.70;99.90;;;;;;5050654;28;20054;-75
2023/04/23 03:44:10;;;;;;;6.15;5.55;;;6.70;99.90;;;;;;5050688;28;20082;-75
2023/04/23 03:46:35;;;;;;;6.88;6.10;;;6.70;99.90;;;;;;5050106;28;20373;-75
2023/04/23 03:49:01;;;;;;;6.88;6.15;;;6.70;99.90;;;;;;5049874;28;20028;-75
2023/04/23 03:51:27;;;;;;;7.55;6.20;;;6.70;99.90;;;;;;5050516;28;20021;-74
2023/04/23 03:53:52;;;;;;;7.80;5.82;;;6.70;99.90;;;;;;5051255;28;20021;-74
2023/04/23 03:56:18;;;;;;;6.30;5.65;;;6.70;99.90;;;;;;5051176;28;20021;-74
2023/04/23 03:58:44;;;;;;;7.00;5.85;;;6.70;99.90;;;;;;5050603;28;20051;-74
2023/04/23 04:01:09;;;;;;;7.03;5.75;;;6.70;99.90;;;;;;5051174;28;20017;-74
2023/04/23 04:03:35;;;;;;;6.80;6.10;;;6.70;99.90;;;;;;5050722;28;20100;-75
2023/04/23 04:06:01;;;;;;;8.05;6.10;;;6.70;99.90;;;;;;5050845;28;20016;-73
2023/04/23 04:08:28;;;;;;;9.70;6.10;;;6.60;99.90;;;;;;5050000;28;20036;-75
2023/04/23 04:10:54;;;;;;;8.63;6.40;;;6.70;99.90;;;;;;5048986;28;20429;-74
2023/04/23 04:13:20;;;;;;;7.50;5.93;;;6.70;99.90;;;;;;5050335;28;20108;-74
2023/04/23 04:15:46;;;;;;;8.63;5.85;;;6.70;99.90;;;;;;5050165;28;20028;-75
2023/04/23 04:18:12;;;;;;;7.35;5.50;;;6.80;99.90;;;;;;5050203;28;20028;-75
2023/04/23 04:20:38;;;;;;;7.97;6.00;;;6.80;99.90;;;;;;5049739;28;20480;-75
2023/04/23 04:23:04;;;;;;;7.78;5.90;;;6.80;99.90;;;;;;5050100;28;20041;-75
2023/04/23 04:25:29;;;;;;;6.43;5.03;;;6.90;99.90;;;;;;5049575;28;20036;-75
2023/04/23 04:27:56;;;;;;;7.68;6.15;;;6.90;99.90;;;;;;5050108;28;20028;-75
2023/04/23 04:30:23;;;;;;;7.90;5.88;;;6.90;99.90;;;;;;5049936;28;20147;-78
2023/04/23 04:32:49;;;;;;;7.45;6.28;;;6.90;99.90;;;;;;5049986;28;20018;-74
2023/04/23 04:35:15;;;;;;;10.10;6.97;;;6.90;99.90;;;;;;5050162;28;20374;-75
2023/04/23 04:37:42;;;;;;;7.55;6.30;;;6.90;99.90;;;;;;5049722;28;20108;-74
2023/04/23 04:40:10;;;;;;;8.07;6.40;;;7.00;99.90;;;;;;5049814;28;20032;-75
2023/04/23 04:42:36;;;;;;;7.80;6.47;;;6.90;99.90;;;;;;5049857;28;20025;-75
2023/04/23 04:45:03;;;;;;;7.63;6.57;;;6.90;99.90;;;;;;5050289;28;20432;-75
2023/04/23 04:47:29;;;;;;;9.23;6.90;;;6.80;99.90;;;;;;5049484;28;20105;-73
2023/04/23 04:49:56;;;;;;;9.15;7.40;;;6.70;99.90;;;;;;5048495;28;20097;-73
2023/04/23 04:52:23;;;;;;;10.50;7.75;;;6.80;99.90;;;;;;5050016;28;20405;-73
2023/04/23 04:54:49;;;;;;;8.60;7.30;;;6.80;99.90;;;;;;5049667;28;20035;-75
2023/04/23 04:57:15;;;;;;;10.40;8.18;;;6.80;99.90;;;;;;5050029;28;20413;-74
2023/04/23 04:59:40;;;;;;;11.13;7.60;;;6.80;99.90;;;;;;5049394;28;20104;-75
2023/04/23 05:02:06;;;;;;;12.23;8.13;;;6.80;99.90;;;;;;5053410;28;20094;-75
2023/04/23 05:04:33;;;;;;;12.32;9.55;;;6.80;99.90;;;;;;5052812;28;20017;-75
2023/04/23 05:06:58;;;;;;;14.70;8.88;;;6.80;99.90;;;;;;5053338;28;20017;-75
2023/04/23 05:09:25;;;;;;;14.55;10.05;;;6.70;99.90;;;;;;5053140;28;20027;-78
2023/04/23 05:11:51;;;;;;;16.08;10.48;;;6.70;99.90;;;;;;5053205;28;20434;-73
2023/04/23 05:14:16;;;;;;;16.60;10.73;;;6.80;99.90;;;;;;5052930;28;20047;-73
2023/04/23 05:16:42;;;;;;;15.55;11.30;;;6.80;99.90;;;;;;5052493;28;20048;-73
2023/04/23 05:19:08;;;;;;;16.05;11.07;;;6.80;99.90;;;;;;5053055;28;20104;-74
2023/04/23 05:21:34;;;;;;;14.98;11.30;;;6.80;99.90;;;;;;5052618;28;20021;-74
2023/04/23 05:24:00;;;;;;;19.48;12.40;;;6.80;99.90;;;;;;5053004;28;20048;-73
2023/04/23 05:26:25;;;;;;;22.08;13.05;;;6.90;99.90;;;;;;5052486;28;20033;-78
2023/04/23 05:28:51;;;;;;;18.05;12.18;;;6.90;99.90;;;;;;5052766;28;20025;-74
2023/04/23 05:31:17;;;;;;;19.50;13.35;;;6.90;99.90;;;;;;5052584;28;20105;-74
2023/04/23 05:33:43;;;;;;;21.90;14.30;;;6.90;99.90;;;;;;5050934;28;20025;-74
2023/04/23 05:36:09;;;;;;;20.45;13.40;;;6.90;99.90;;;;;;5052784;28;20033;-74
2023/04/23 05:38:37;;;;;;;20.02;13.43;;;7.00;99.90;;;;;;5052172;28;20024;-74
2023/04/23 05:41:03;;;;;;;15.52;11.10;;;7.00;99.90;;;;;;5052649;28;20028;-74
2023/04/23 05:43:28;;;;;;;18.83;12.65;;;7.00;99.90;;;;;;5052496;28;20428;-74
2023/04/23 05:45:54;;;;;;;19.73;13.13;;;7.00;99.90;;;;;;5052681;28;20103;-73
2023/04/23 05:48:20;;;;;;;19.48;13.18;;;7.00;99.90;;;;;;5052623;28;20124;-73
2023/04/23 05:50:48;;;;;;;22.77;14.75;;;7.10;99.90;;;;;;5052173;28;20025;-74
2023/04/23 05:53:14;;;;;;;19.48;12.65;;;7.10;99.90;;;;;;5052593;28;20343;-74
2023/04/23 05:55:39;;;;;;;20.83;13.43;;;7.10;99.90;;;;;;5051986;28;20025;-74
2023/04/23 05:58:05;;;;;;;22.95;14.77;;;7.20;99.90;;;;;;5052513;28;20070;-74
2023/04/23 06:00:31;;;;;;;21.85;14.48;;;7.30;99.90;;;;;;5051908;28;20445;-74
2023/04/23 06:02:57;;;;;;;21.88;14.45;;;7.40;99.90;;;;;;5052011;28;20033;-74
2023/04/23 06:05:22;;;;;;;25.30;14.82;;;7.50;99.90;;;;;;5052228;28;20043;-74
2023/04/23 06:07:48;;;;;;;19.60;14.05;;;7.50;99.90;;;;;;5051847;28;20037;-74
2023/04/23 06:10:14;;;;;;;23.75;15.20;;;7.70;99.90;;;;;;5052179;28;20447;-74
2023/04/23 06:12:40;;;;;;;21.33;15.05;;;7.80;99.90;;;;;;5051206;28;20147;-74
2023/04/23 06:15:07;;;;;;;23.80;15.45;;;7.90;99.90;;;;;;5052200;28;20036;-74
2023/04/23 06:17:34;;;;;;;22.55;15.75;;;7.90;99.90;;;;;;5051550;28;20123;-74
2023/04/23 06:20:01;;;;;;;23.90;15.50;;;8.00;99.90;;;;;;5051805;28;20032;-74
2023/04/23 06:22:27;;;;;;;22.95;15.70;;;8.10;99.90;;;;;;5051716;28;20123;-74
2023/04/23 06:24:53;;;;;;;27.40;18.92;;;8.20;99.90;;;;;;5051502;28;20117;-74
2023/04/23 06:27:18;;;;;;;25.30;18.10;;;8.10;99.90;;;;;;5051635;28;20024;-74
2023/04/23 06:29:44;;;;;;;27.77;18.92;;;8.30;99.90;;;;;;5051366;28;20104;-74
2023/04/23 06:32:10;;;;;;;26.48;19.20;;;8.30;99.90;;;;;;5051796;28;20021;-73
2023/04/23 06:34:36;;;;;;;24.95;17.80;;;8.40;99.90;;;;;;5051302;28;20017;-73
2023/04/23 06:37:01;;;;;;;22.50;17.77;;;8.40;99.90;;;;;;5051543;28;20407;-73
2023/04/23 06:39:27;;;;;;;22.73;16.90;;;8.50;99.90;;;;;;5051422;28;20017;-73
2023/04/23 06:41:53;;;;;;;21.73;16.10;;;8.40;99.90;;;;;;5051160;28;20342;-75
2023/04/23 06:44:19;;;;;;;22.25;17.48;;;8.40;99.90;;;;;;5051532;28;20021;-75
2023/04/23 06:46:45;;;;;;;23.33;16.02;;;8.40;99.90;;;;;;5051238;28;20178;-75
2023/04/23 06:49:11;;;;;;;21.25;15.40;;;8.40;99.90;;;;;;5051464;28;20104;-74
2023/04/23 06:51:36;;;;;;;19.17;15.10;;;8.30;99.90;;;;;;5051166;28;20021;-75
2023/04/23 06:54:02;;;;;;;22.40;16.50;;;8.20;99.90;;;;;;5051768;28;20037;-75
2023/04/23 06:56:28;;;;;;;26.70;18.95;;;8.30;99.90;;;;;;5051364;28;20029;-75
2023/04/23 06:58:54;;;;;;;24.40;16.27;;;8.40;99.90;;;;;;5050674;28;20021;-75
2023/04/23 07:01:19;;;;;;;23.17;17.02;;;8.50;99.90;;;;;;5051029;28;20096;-74
2023/04/23 07:03:47;;;;;;;24.10;15.90;;;8.60;99.90;;;;;;5051112;28;20354;-74
2023/04/23 07:06:14;;;;;;;20.13;14.38;;;8.70;99.90;;;;;;5051047;28;20028;-74
2023/04/23 07:08:43;;;;;;;20.65;15.43;;;8.80;99.90;;;;;;5050882;28;20036;-74
2023/04/23 07:11:09;;;;;;;21.55;14.68;;;9.00;99.90;;;;;;5050867;28;20369;-74
2023/04/23 07:13:35;;;;;;;21.58;14.70;;;9.10;99.90;;;;;;5050787;28;20377;-75
2023/04/23 07:16:01;;;;;;;26.63;16.38;;;9.00;99.90;;;;;;5050773;28;20111;-73
2023/04/23 07:18:27;;;;;;;24.15;15.10;;;9.00;99.90;;;;;;5050852;28;20104;-73
2023/04/23 07:20:53;;;;;;;17.65;12.55;;;9.00;99.90;;;;;;5050376;28;20409;-73
2023/04/23 07:23:18;;;;;;;20.42;14.18;;;9.00;99.90;;;;;;5050092;28;20049;-73
2023/04/23 07:25:44;;;;;;;19.50;14.45;;;9.10;99.90;;;;;;5049927;28;20047;-73
2023/04/23 07:28:10;;;;;;;17.67;13.25;;;9.30;99.90;;;;;;5050818;28;20021;-74
2023/04/23 07:30:35;;;;;;;15.68;13.05;;;9.40;99.90;;;;;;5050602;28;20292;-74
2023/04/23 07:33:01;;;;;;;17.92;13.05;;;9.30;99.90;;;;;;5050604;28;20020;-74
2023/04/23 07:35:27;;;;;;;16.42;12.98;;;9.50;99.90;;;;;;5050785;28;20025;-74
2023/04/23 07:37:54;;;;;;;18.88;13.52;;;9.70;99.90;;;;;;5050138;28;20024;-75
2023/04/23 07:40:24;;;;;;;13.80;10.95;;;9.80;99.90;;;;;;5050866;28;20017;-74
2023/04/23 07:42:50;;;;;;;15.45;11.55;;;9.80;99.90;;;;;;5050719;28;20496;-74
2023/04/23 07:45:17;;;;;;;20.00;12.25;;;9.70;99.90;;;;;;5050616;28;20048;-74
2023/04/23 07:47:45;;;;;;;14.40;10.77;;;9.70;99.90;;;;;;5050365;28;20361;-73
2023/04/23 07:50:12;;;;;;;17.48;11.35;;;9.50;99.90;;;;;;5050710;28;20029;-73
2023/04/23 07:52:38;;;;;;;13.45;10.30;;;9.50;99.90;;;;;;5050219;28;20415;-74
2023/04/23 07:55:05;;;;;;;17.95;12.05;;;9.40;99.90;;;;;;5050410;28;20484;-74
2023/04/23 07:57:30;;;;;;;17.67;12.20;;;9.40;99.90;;;;;;5050628;28;20108;-74
2023/04/23 07:59:56;;;;;;;16.42;12.65;;;9.40;99.90;;;;;;5050146;28;20461;-73
2023/04/23 08:02:24;;;;;;;14.60;12.00;;;9.40;99.90;;;;;;5050429;28;20102;-74
2023/04/23 08:04:51;;;;;;;14.60;11.75;;;9.50;99.90;;;;;;5050168;28;20134;-74
2023/04/23 08:07:17;;;;;;;13.80;11.43;;;9.60;99.90;;;;;;5050637;28;20021;-74
2023/04/23 08:09:43;;;;;;;13.75;11.00;;;9.70;99.90;;;;;;5049905;28;20458;-75
2023/04/23 08:12:08;;;;;;;11.32;9.65;;;9.80;99.90;;;;;;5050598;28;20021;-75
2023/04/23 08:14:34;;;;;;;13.48;10.35;;;9.70;99.90;;;;;;5050870;28;20060;-74
2023/04/23 08:17:00;;;;;;;13.30;10.88;;;9.80;99.90;;;;;;5050238;28;20013;-74
2023/04/23 08:19:30;;;;;;;13.63;10.30;;;10.00;99.90;;;;;;5050524;28;20446;-73
2023/04/23 08:21:56;;;;;;;13.23;10.52;;;10.10;99.90;;;;;;5050232;28;20342;-74
2023/04/23 08:24:21;;;;;;;13.93;11.20;;;10.20;99.90;;;;;;5050525;28;20041;-74
2023/04/23 08:26:47;;;;;;;12.27;9.98;;;10.40;99.90;;;;;;5050596;28;20464;-74
2023/04/23 08:29:13;;;;;;;13.98;10.35;;;10.50;99.90;;;;;;5051032;28;20139;-74
2023/04/23 08:31:39;;;;;;;10.63;9.13;;;10.60;99.90;;;;;;5050689;28;20465;-75
2023/04/23 08:34:04;;;;;;;11.93;9.57;;;10.60;99.90;;;;;;5051674;28;20100;-74
2023/04/23 08:36:30;;;;;;;13.57;9.82;;;10.80;99.90;;;;;;5055903;28;20508;-74
2023/04/23 08:38:56;;;;;;;12.75;9.32;;;10.90;99.90;;;;;;5053780;28;20059;-74
2023/04/23 08:41:26;;;;;;;12.15;10.32;;;10.90;99.90;;;;;;5054049;28;20145;-74
2023/04/23 08:43:58;;;;;;;10.75;8.55;;;11.00;99.90;;;;;;5053471;28;20463;-74
2023/04/23 08:46:25;;;;;;;12.05;9.30;;;11.00;99.90;;;;;;5053446;28;20036;-74
2023/04/23 08:48:52;;;;;;;11.70;8.68;;;11.00;99.90;;;;;;5053275;28;20025;-74
2023/04/23 08:51:20;;;;;;;9.68;8.68;;;11.00;99.90;;;;;;5053922;28;20031;-74
2023/04/23 08:53:51;;;;;;;11.93;9.48;;;11.10;99.90;;;;;;5053161;28;20052;-74
2023/04/23 08:56:17;;;;;;;11.30;10.02;;;11.20;99.90;;;;;;5052175;28;20032;-75
2023/04/23 08:58:46;;;;;;;9.27;8.20;;;11.30;99.90;;;;;;5053048;28;20032;-74
2023/04/23 09:01:12;;;;;;;9.60;8.25;;;11.40;99.90;;;;;;5053582;28;20013;-74
2023/04/23 09:03:38;;;;;;;12.00;9.55;;;11.30;99.90;;;;;;5053354;28;20100;-74
2023/04/23 09:06:04;;;;;;;9.80;8.27;;;11.20;99.90;;;;;;5053373;28;20468;-75
2023/04/23 09:08:31;;;;;;;11.88;8.57;;;11.10;99.90;;;;;;5053395;28;20137;-74
2023/04/23 09:11:00;;;;;;;8.57;7.78;;;11.10;99.90;;;;;;5052649;28;20017;-74
2023/04/23 09:13:27;;;;;;;9.50;7.75;;;11.00;99.90;;;;;;5053172;28;20444;-75
2023/04/23 09:15:52;;;;;;;10.45;8.52;;;10.80;99.90;;;;;;5052773;28;20382;-74
2023/04/23 09:18:19;;;;;;;10.23;8.65;;;10.80;99.90;;;;;;5052792;28;20027;-74
2023/04/23 09:20:45;;;;;;;12.45;8.85;;;10.70;99.90;;;;;;5052799;28;20095;-75
2023/04/23 09:23:14;;;;;;;10.02;8.57;;;10.80;99.90;;;;;;5052886;28;20102;-75
2023/04/23 09:25:40;;;;;;;9.55;8.20;;;10.80;99.90;;;;;;5052561;28;20344;-75
2023/04/23 09:28:13;;;;;;;9.07;8.18;;;10.80;99.90;;;;;;5053026;28;20032;-74
2023/04/23 09:30:47;;;;;;;9.75;7.82;;;10.80;99.90;;;;;;5052810;28;20029;-75
2023/04/23 09:33:15;;;;;;;9.13;7.25;;;10.70;99.90;;;;;;5053051;28;20024;-74
2023/04/23 09:35:42;;;;;;;11.00;7.93;;;10.70;99.90;;;;;;5053046;28;20114;-78
2023/04/23 09:38:09;;;;;;;7.50;6.32;;;10.70;99.90;;;;;;5052985;28;20101;-74
2023/04/23 09:40:36;;;;;;;10.65;7.75;;;10.80;99.90;;;;;;5052768;28;20021;-74
2023/04/23 09:43:04;;;;;;;9.20;7.50;;;10.90;99.90;;;;;;5052422;28;20086;-74
2023/04/23 09:45:31;;;;;;;8.25;7.05;;;10.90;99.90;;;;;;5051846;28;20139;-75
2023/04/23 09:47:57;;;;;;;9.07;7.53;;;10.90;99.90;;;;;;5052302;28;20033;-75
2023/04/23 09:50:37;;;;;;;9.55;7.40;;;11.00;99.90;;;;;;5052609;28;20021;-74
2023/04/23 09:53:05;;;;;;;10.15;7.85;;;11.00;99.90;;;;;;5052111;28;20158;-75
2023/04/23 09:55:38;;;;;;;11.00;7.85;;;11.10;99.90;;;;;;5052599;28;20116;-74
2023/04/23 09:58:05;;;;;;;10.45;8.75;;;11.40;99.90;;;;;;5052103;28;20340;-75
2023/04/23 10:00:36;;;;;;;9.73;8.27;;;11.70;99.90;;;;;;5053037;28;20105;-74
2023/04/23 10:03:02;;;;;;;9.60;7.63;;;11.70;99.90;;;;;;5052193;28;20057;-74
2023/04/23 10:05:28;;;;;;;9.75;8.05;;;11.60;99.90;;;;;;5052734;28;20075;-74
2023/04/23 10:07:56;;;;;;;11.32;7.57;;;11.40;99.90;;;;;;5052192;28;20288;-74
2023/04/23 10:10:23;;;;;;;8.63;7.65;;;11.30;99.90;;;;;;5052432;28;20021;-74
2023/04/23 10:12:52;;;;;;;10.40;7.97;;;11.10;99.90;;;;;;5051734;28;20024;-74
2023/04/23 10:15:18;;;;;;;9.77;8.27;;;11.00;99.90;;;;;;5052347;28;20063;-73
2023/04/23 10:17:46;;;;;;;9.73;8.25;;;11.00;99.90;;;;;;5051641;28;20365;-75
2023/04/23 10:20:13;;;;;;;10.55;8.68;;;10.90;99.90;;;;;;5052112;28;20025;-75
2023/04/23 10:22:43;;;;;;;9.57;8.38;;;10.90;99.90;;;;;;5052152;28;20040;-75
2023/04/23 10:25:10;;;;;;;10.02;8.60;;;11.10;99.90;;;;;;5051538;28;20032;-75
2023/04/23 10:27:45;;;;;;;10.07;7.28;;;11.40;99.90;;;;;;5052237;28;20092;-75
2023/04/23 10:30:13;;;;;;;8.18;6.60;;;11.40;99.90;;;;;;5052009;28;20023;-74
2023/04/23 10:32:40;;;;;;;8.02;6.22;;;11.40;99.90;;;;;;5051935;28;20033;-74
2023/04/23 10:35:07;;;;;;;8.07;6.63;;;11.50;99.90;;;;;;5051311;28;20033;-74
2023/04/23 10:37:34;;;;;;;9.98;8.25;;;11.50;99.90;;;;;;5050633;28;20056;-74
2023/04/23 10:40:23;;;;;;;9.82;7.78;;;11.50;99.90;;;;;;5051443;28;20079;-74
2023/04/23 10:42:49;;;;;;;9.55;7.80;;;11.50;99.90;;;;;;5051436;28;20047;-75
2023/04/23 10:45:19;;;;;;;8.40;7.10;;;11.50;99.90;;;;;;5051840;28;20025;-74
2023/04/23 10:47:46;;;;;;;12.30;7.70;;;11.40;99.90;;;;;;5051771;28;20056;-77
2023/04/23 10:50:25;;;;;;;8.32;6.90;;;11.40;99.90;;;;;;5052042;28;20051;-73
2023/04/23 10:52:53;;;;;;;8.23;7.25;;;11.30;99.90;;;;;;5051518;28;20024;-74
2023/04/23 10:55:29;;;;;;;11.15;7.65;;;11.30;99.90;;;;;;5051834;28;20036;-73
2023/04/23 10:58:03;;;;;;;8.05;6.97;;;11.30;99.90;;;;;;5051785;28;20028;-74
2023/04/23 11:00:50;;;;;;;7.93;6.80;;;11.40;99.90;;;;;;5052413;28;20025;-74
2023/04/23 11:03:34;;;;;;;7.95;6.90;;;11.50;99.90;;;;;;5053532;28;20036;-74
2023/04/23 11:06:04;;;;;;;8.45;6.72;;;11.60;99.90;;;;;;5051895;28;20025;-74
2023/04/23 11:08:31;;;;;;;7.10;6.40;;;11.70;99.90;;;;;;5052535;28;20028;-74
2023/04/23 11:10:58;;;;;;;6.00;5.30;;;11.70;99.90;;;;;;5051802;28;20063;-74
2023/04/23 11:13:28;;;;;;;5.90;5.30;;;11.80;99.90;;;;;;5052068;28;20075;-74
2023/04/23 11:16:21;;;;;;;6.32;5.43;;;11.90;99.90;;;;;;5051675;28;20036;-75
2023/04/23 11:19:14;;;;;;;5.93;5.35;;;11.90;99.90;;;;;;5049454;28;20051;-73
2023/04/23 11:22:02;;;;;;;9.77;5.38;;;11.90;99.90;;;;;;5052004;28;20028;-74
2023/04/23 11:24:40;;;;;;;6.22;5.63;;;11.90;99.90;;;;;;5051442;28;20379;-74
2023/04/23 11:27:15;;;;;;;7.38;5.90;;;11.80;99.90;;;;;;5051232;28;20045;-74
2023/04/23 11:29:43;;;;;;;7.45;5.68;;;11.70;99.90;;;;;;5051028;28;20040;-75
2023/04/23 11:32:11;;;;;;;6.30;5.70;;;11.60;99.90;;;;;;5050520;28;20021;-74
2023/04/23 11:34:42;;;;;;;6.75;5.93;;;11.40;99.90;;;;;;5051005;28;20013;-74
2023/04/23 11:37:12;;;;;;;6.72;6.05;;;11.30;99.90;;;;;;5050449;28;20282;-74
2023/04/23 11:39:40;;;;;;;6.03;5.43;;;11.40;99.90;;;;;;5050827;28;20040;-74
2023/04/23 11:42:16;;;;;;;6.32;5.72;;;11.40;99.90;;;;;;5050384;28;20037;-74
2023/04/23 11:44:42;;;;;;;6.40;5.68;;;11.40;99.90;;;;;;5050775;28;20021;-73
2023/04/23 11:47:13;;;;;;;7.35;6.60;;;11.60;99.90;;;;;;5050076;28;20056;-73
2023/04/23 11:49:41;;;;;;;6.00;5.40;;;11.60;99.90;;;;;;5050834;28;20292;-74
2023/04/23 11:52:08;;;;;;;8.00;5.75;;;11.60;99.90;;;;;;5050348;28;20025;-74
2023/04/23 11:54:34;;;;;;;6.68;5.75;;;11.70;99.90;;;;;;5050645;28;20021;-74
2023/04/23 11:57:01;;;;;;;9.00;5.78;;;11.90;99.90;;;;;;5050287;28;20351;-74
2023/04/23 11:59:28;;;;;;;6.55;5.85;;;11.90;99.90;;;;;;5050734;28;20047;-74
2023/04/23 12:01:58;;;;;;;6.50;5.78;;;11.90;99.90;;;;;;5050321;28;20025;-74
2023/04/23 12:04:25;;;;;;;6.53;5.85;;;12.10;99.90;;;;;;5050605;28;20024;-73
2023/04/23 12:06:53;;;;;;;6.72;6.13;;;12.00;99.90;;;;;;5050161;28;20480;-74
2023/04/23 12:09:21;;;;;;;6.47;5.85;;;12.20;99.90;;;;;;5051894;28;20205;-74
2023/04/23 12:11:49;;;;;;;7.55;5.93;;;12.30;99.90;;;;;;5055514;28;20025;-74
2023/04/23 12:14:16;;;;;;;6.65;5.53;;;12.30;99.90;;;;;;5053517;28;20462;-74
2023/04/23 12:16:44;;;;;;;5.65;5.10;;;12.50;99.90;;;;;;5054906;28;20048;-73
2023/04/23 12:19:24;;;;;;;6.15;5.35;;;12.60;99.90;;;;;;5054319;28;20025;-74
2023/04/23 12:21:55;;;;;;;7.47;5.68;;;12.70;99.90;;;;;;5055352;28;20104;-73
2023/04/23 12:24:26;;;;;;;5.57;5.07;;;12.90;99.90;;;;;;5055149;28;20124;-74
2023/04/23 12:26:54;;;;;;;6.32;5.72;;;13.20;99.90;;;;;;5053858;28;20139;-74
2023/04/23 12:29:25;;;;;;;5.95;5.07;;;13.40;99.90;;;;;;5054689;28;20477;-74
2023/04/23 12:31:52;;;;;;;5.88;5.25;;;13.60;99.90;;;;;;5054455;28;20418;-74
2023/04/23 12:34:19;;;;;;;6.22;5.63;;;13.60;99.90;;;;;;5054337;28;20446;-74
2023/04/23 12:36:53;;;;;;;8.00;6.13;;;13.40;99.90;;;;;;5054299;28;20024;-74
2023/04/23 12:39:35;;;;;;;7.25;6.13;;;13.40;99.90;;;;;;5052896;28;20025;-73
2023/04/23 12:42:09;;;;;;;6.40;5.53;;;13.40;99.90;;;;;;5053707;28;20116;-72
2023/04/23 12:44:37;;;;;;;6.32;4.82;;;13.10;99.90;;;;;;5054755;28;20368;-73
2023/04/23 12:47:06;;;;;;;5.57;5.00;;;13.10;99.90;;;;;;5053093;28;20033;-74